Погода Сагорана неделю

Марракеш, Марокко

02 - 08 марта
  • 02марта
    Сегодня
    +11°
    +25°
    Практически безоблачно
    ВремяПогодаТемператураВлажностьДавлениеВетер, м/сВероятность осадков
    01:00Облачно с прояснениями+16°C17 %700 мм1.9 м/с2 %
    04:00Облачно с прояснениями+15°C18 %699 мм0.9 м/с2 %
    07:00Облачно с прояснениями+13°C20 %699 мм0.5 м/с2 %
    10:00Практически безоблачно+17°C13 %701 мм0.6 м/с2 %
    13:00Практически безоблачно+23°C11 %701 мм6.5 м/с2 %
    16:00Практически безоблачно+24°C9 %699 мм7.5 м/с2 %
    19:00Облачно с прояснениями+23°C12 %699 мм5.8 м/с2 %
    22:00Ясно и безоблачно+20°C14 %700 мм4.6 м/с2 %
  • 03марта
    Воскресенье
    +9°
    +27°
    Ясно и безоблачно
    ВремяПогодаТемператураВлажностьДавлениеВетер, м/сВероятность осадков
    01:00Ясно и безоблачно+18°C18 %700 мм4.1 м/с2 %
    04:00Ясно и безоблачно+15°C34 %699 мм1.2 м/с2 %
    07:00Ясно и безоблачно+12°C51 %698 мм1.7 м/с2 %
    10:00Ясно и безоблачно+16°C39 %701 мм0.7 м/с2 %
    13:00Ясно и безоблачно+23°C15 %702 мм1.2 м/с2 %
    16:00Ясно и безоблачно+26°C10 %700 мм1.3 м/с2 %
    19:00Ясно и безоблачно+26°C11 %700 мм1.0 м/с2 %
    22:00Ясно и безоблачно+21°C19 %701 мм3.3 м/с2 %
  • 04марта
    Понедельник
    +12°
    +26°
    Ясно и безоблачно
    ВремяПогодаТемператураВлажностьДавлениеВетер, м/сВероятность осадков
    01:00Ясно и безоблачно+18°C25 %701 мм1.1 м/с2 %
    04:00Ясно и безоблачно+14°C35 %700 мм1.7 м/с2 %
    07:00Ясно и безоблачно+11°C45 %701 мм1.9 м/с2 %
    10:00Ясно и безоблачно+16°C31 %704 мм1.3 м/с2 %
    13:00Ясно и безоблачно+23°C22 %705 мм2.5 м/с2 %
    16:00Ясно и безоблачно+25°C16 %703 мм2.3 м/с2 %
    19:00Ясно и безоблачно+24°C17 %702 мм2.7 м/с2 %
    22:00Ясно и безоблачно+20°C21 %703 мм2.4 м/с2 %
  • 05марта
    Вторник
    +10°
    +26°
    Ясно и безоблачно
    ВремяПогодаТемператураВлажностьДавлениеВетер, м/сВероятность осадков
    01:00Ясно и безоблачно+18°C25 %703 мм0.6 м/с2 %
    04:00Ясно и безоблачно+16°C29 %702 мм0.5 м/с2 %
    07:00Ясно и безоблачно+14°C32 %702 мм0.5 м/с2 %
    10:00Ясно и безоблачно+17°C25 %704 мм0.6 м/с2 %
    13:00Ясно и безоблачно+24°C13 %705 мм4.2 м/с2 %
    16:00Небольшая облачность+25°C11 %703 мм5.1 м/с2 %
    19:00Ясно и безоблачно+25°C10 %702 мм3.4 м/с2 %
    22:00Ясно и безоблачно+21°C14 %702 мм2.2 м/с2 %
  • 06марта
    Среда
    +15°
    +27°
    Ясно и безоблачно
    ВремяПогодаТемператураВлажностьДавлениеВетер, м/сВероятность осадков
    01:00Ясно и безоблачно+19°C16 %702 мм0.7 м/с2 %
    04:00Ясно и безоблачно+14°C23 %701 мм1.2 м/с2 %
    07:00Ясно и безоблачно+12°C33 %701 мм1.1 м/с2 %
    10:00Ясно и безоблачно+17°C22 %703 мм0.2 м/с2 %
    13:00Ясно и безоблачно+25°C13 %704 мм2.7 м/с2 %
    16:00Практически безоблачно+27°C9 %702 мм5.0 м/с2 %
    19:00Практически безоблачно+25°C10 %701 мм3.7 м/с2 %
    22:00Небольшая облачность+21°C14 %701 мм2.3 м/с2 %
Мы используем cookies
Соглашаюсь